Pagrindinis puslapis
METAR-TAF:

METAR-TAF

Oro uostai :

Buckland, Aliaska, Jungtinės Amerikos Valstijos

platuma: 65-58-56N, ilguma: 161-09-07W, Aukštis: 7 m

Dabartinis oras

Ataskaita buvo paskelbta 24 minutes, ne 22:56 UTC
Vėjas 9 kt iš Šiaurės
Temperatūra 12°C
Drėgmė 62%
Slėgis 1016 hPa
Matomumas: 16.1 km
Apsiniaukę ne aukštis 4100 ft

METAR: PABL 052256Z AUTO 35009KT 10SM OVC041 12/05 A3001 RMK AO2 SLP163 T01170050

Laikas: 15:20 (23:20 UTC)


TAF: trūkstamas

Orai ataskaitas ir orų prognozės (METAR, TAF).

turimą stotys yra geltonos ir raudonos taškus žemėlapyje.

Perkelti pele per norėdami pamatyti stoties vardą.

Tada spustelėkite, norėdami matyti oro stebėjimo ir prognozės.

Norėdami pakeisti žemėlapį: spustelėkite ant žalios mygtukų su juodo kryžiaus žemyn,; žalią mygtuką su brūkšneliu, jei norite nutolinti; arba žalių rodyklių gretimoms žemėlapius.


METAR-TAF: